Time;durP1;ratioP1;P1;durP2;ratioP2;P2;SDS_P1;SDS_P2;PMS_P1;PMS_P2;Temp;Humidity;BMP_temperature;BMP_pressure;BME280_temperature;BME280_humidity;BME280_pressure;Samples;Min_cycle;Max_cycle;Signal;HPM_P1;HPM_P2
2021/03/21 00:00:29;;;;;;;4.45;0.70;;;;;;;6.53;88.46;102552.38;5058551;28;20040;-51
2021/03/21 00:02:56;;;;;;;3.80;0.70;;;;;;;6.55;88.85;102555.78;5067900;28;20051;-52
2021/03/21 00:05:23;;;;;;;4.32;0.80;;;;;;;6.54;88.83;102552.16;5069118;28;20053;-56
2021/03/21 00:07:59;;;;;;;6.55;0.80;;;;;;;6.54;88.58;102543.84;5063868;28;20128;-51
2021/03/21 00:10:29;;;;;;;5.00;0.77;;;;;;;6.54;88.73;102541.06;5058975;28;20481;-53
2021/03/21 00:12:56;;;;;;;4.80;1.00;;;;;;;6.55;88.79;102531.66;5063534;28;20037;-49
2021/03/21 00:15:23;;;;;;;5.55;0.70;;;;;;;6.56;88.53;102526.97;5070421;28;20051;-50
2021/03/21 00:17:51;;;;;;;8.27;0.93;;;;;;;6.56;88.73;102530.59;5065568;28;20045;-49
2021/03/21 00:20:21;;;;;;;5.28;0.90;;;;;;;6.59;88.47;102523.75;5054870;28;20072;-49
2021/03/21 00:22:47;;;;;;;5.35;1.08;;;;;;;6.59;88.51;102518.19;5062856;28;20045;-52
2021/03/21 00:25:19;;;;;;;6.68;1.13;;;;;;;6.60;88.50;102519.84;5069726;28;20067;-51
2021/03/21 00:27:46;;;;;;;5.85;1.23;;;;;;;6.60;88.72;102514.31;5059254;28;20434;-50
2021/03/21 00:30:18;;;;;;;5.75;1.10;;;;;;;6.59;88.47;102504.31;5074193;28;20056;-51
2021/03/21 00:32:45;;;;;;;7.35;1.30;;;;;;;6.60;88.26;102507.91;5065785;28;20082;-50
2021/03/21 00:35:14;;;;;;;7.82;1.13;;;;;;;6.60;88.25;102510.69;5052219;28;20063;-50
2021/03/21 00:37:41;;;;;;;7.18;1.52;;;;;;;6.63;88.66;102510.22;5059021;28;20061;-49
2021/03/21 00:40:18;;;;;;;8.80;1.25;;;;;;;6.65;88.64;102496.97;5073763;28;20044;-53
2021/03/21 00:42:46;;;;;;;8.85;1.27;;;;;;;6.63;88.38;102499.13;5068014;28;20098;-48
2021/03/21 00:45:15;;;;;;;5.53;1.20;;;;;;;6.66;88.71;102505.06;5033984;28;20103;-51
2021/03/21 00:47:42;;;;;;;6.53;1.15;;;;;;;6.68;88.80;102508.47;5054249;28;20045;-50
2021/03/21 00:50:27;;;;;;;8.43;1.35;;;;;;;6.69;88.58;102503.75;5071361;28;20490;-49
2021/03/21 00:52:54;;;;;;;7.70;1.30;;;;;;;6.71;88.46;102509.91;5068041;28;20052;-53
2021/03/21 00:55:21;;;;;;;9.50;1.60;;;;;;;6.73;88.41;102500.28;5054504;28;20084;-51
2021/03/21 00:57:49;;;;;;;7.15;2.08;;;;;;;6.74;89.04;102496.44;5058108;28;20068;-49
2021/03/21 01:00:20;;;;;;;12.98;2.13;;;;;;;6.77;89.11;102495.13;5068468;28;20498;-49
2021/03/21 01:02:48;;;;;;;14.47;3.03;;;;;;;6.76;88.67;102477.63;5067481;28;20482;-52
2021/03/21 01:05:19;;;;;;;12.77;2.78;;;;;;;6.78;89.13;102480.19;5058261;28;20047;-51
2021/03/21 01:07:49;;;;;;;10.25;3.15;;;;;;;6.80;89.26;102484.38;5058166;28;20113;-50
2021/03/21 01:10:16;;;;;;;9.95;3.58;;;;;;;6.80;89.28;102478.84;5066368;28;20052;-50
2021/03/21 01:12:46;;;;;;;9.77;3.45;;;;;;;6.82;89.18;102478.59;5067978;28;20106;-50
2021/03/21 01:15:15;;;;;;;14.00;4.55;;;;;;;6.84;89.14;102473.66;5061790;28;20829;-52
2021/03/21 01:17:42;;;;;;;11.40;3.88;;;;;;;6.85;89.13;102473.44;5056907;28;20432;-51
2021/03/21 01:20:10;;;;;;;11.70;3.80;;;;;;;6.87;89.37;102462.09;5062785;28;20056;-53
2021/03/21 01:22:37;;;;;;;12.98;4.28;;;;;;;6.88;88.94;102470.19;5069488;28;20460;-55
2021/03/21 01:25:06;;;;;;;15.23;6.13;;;;;;;6.89;89.24;102465.50;5067045;28;20098;-52
2021/03/21 01:27:51;;;;;;;15.40;6.38;;;;;;;6.88;89.45;102466.56;5068922;28;20053;-53
2021/03/21 01:30:20;;;;;;;13.60;6.07;;;;;;;6.89;89.21;102465.50;5063256;28;20068;-52
2021/03/21 01:32:47;;;;;;;12.90;6.20;;;;;;;6.90;89.49;102459.72;5054647;28;20097;-49
2021/03/21 01:35:15;;;;;;;14.95;7.13;;;;;;;6.90;89.23;102467.19;5061756;28;20044;-53
2021/03/21 01:37:42;;;;;;;14.30;7.03;;;;;;;6.90;89.52;102472.75;5070667;28;20404;-53
2021/03/21 01:40:11;;;;;;;18.35;8.13;;;;;;;6.90;89.76;102472.75;5059269;28;20041;-51
2021/03/21 01:42:39;;;;;;;16.38;7.75;;;;;;;6.88;89.79;102469.34;5072485;28;20454;-52
2021/03/21 01:45:30;;;;;;;19.13;8.85;;;;;;;6.89;89.38;102468.28;5058482;28;20045;-50
2021/03/21 01:47:59;;;;;;;16.65;7.43;;;;;;;6.83;89.42;102470.03;5072069;28;20052;-50
2021/03/21 01:50:31;;;;;;;12.23;6.40;;;;;;;6.83;89.72;102472.81;5063275;28;20041;-50
2021/03/21 01:52:58;;;;;;;15.93;6.07;;;;;;;6.83;89.34;102475.59;5051140;28;20053;-50
2021/03/21 01:55:25;;;;;;;11.43;4.97;;;;;;;6.82;89.40;102470.28;5057522;28;20090;-48
2021/03/21 01:58:12;;;;;;;12.25;4.25;;;;;;;6.75;89.60;102466.78;5072438;28;20048;-50
2021/03/21 02:00:40;;;;;;;13.45;4.50;;;;;;;6.71;88.92;102451.66;5058577;28;20100;-49
2021/03/21 02:03:10;;;;;;;11.40;4.18;;;;;;;6.64;89.06;102450.91;5072303;28;20052;-49
2021/03/21 02:05:42;;;;;;;11.70;4.53;;;;;;;6.56;88.79;102454.88;5065067;28;20581;-49
2021/03/21 02:08:34;;;;;;;14.18;4.22;;;;;;;6.51;88.49;102458.31;5052314;28;20041;-49
2021/03/21 02:11:10;;;;;;;10.15;3.75;;;;;;;6.45;88.77;102466.72;5063648;28;20052;-53
2021/03/21 02:13:49;;;;;;;11.35;4.45;;;;;;;6.46;89.28;102454.56;5051707;28;20045;-51
2021/03/21 02:16:23;;;;;;;11.35;3.75;;;;;;;6.48;88.82;102461.56;5064455;28;20040;-53
2021/03/21 02:18:57;;;;;;;13.98;4.38;;;;;;;6.49;88.78;102456.88;5052145;28;20560;-47
2021/03/21 02:21:35;;;;;;;15.38;4.30;;;;;;;6.49;88.89;102448.53;5063385;28;20490;-51
2021/03/21 02:24:34;;;;;;;10.65;3.80;;;;;;;6.52;88.96;102457.25;5051880;28;20068;-50
2021/03/21 02:27:14;;;;;;;15.80;4.20;;;;;;;6.51;89.05;102451.94;5059030;28;20139;-51
2021/03/21 02:29:47;;;;;;;16.00;3.83;;;;;;;6.50;88.75;102456.63;5069540;28;20041;-51
2021/03/21 02:32:20;;;;;;;14.95;4.15;;;;;;;6.51;89.22;102461.09;5062842;28;20090;-51
2021/03/21 02:34:57;;;;;;;15.05;4.25;;;;;;;6.53;89.13;102458.94;5052141;28;20717;-48
2021/03/21 02:37:32;;;;;;;12.18;3.67;;;;;;;6.53;88.68;102464.50;5060487;28;20139;-51
2021/03/21 02:40:08;;;;;;;14.40;4.43;;;;;;;6.51;88.91;102458.31;5069655;28;20506;-51
2021/03/21 02:42:45;;;;;;;13.30;4.32;;;;;;;6.49;88.89;102466.03;5062127;28;20122;-49
2021/03/21 02:45:18;;;;;;;14.07;3.92;;;;;;;6.51;88.91;102457.47;5053051;28;20072;-48
2021/03/21 02:47:47;;;;;;;14.43;4.18;;;;;;;6.48;88.66;102453.25;5059796;28;20040;-50
2021/03/21 02:50:20;;;;;;;10.60;3.47;;;;;;;6.49;88.93;102454.94;5070131;28;20057;-46
2021/03/21 02:52:52;;;;;;;12.07;3.72;;;;;;;6.49;88.88;102454.09;5059488;28;20053;-45
2021/03/21 02:55:24;;;;;;;12.48;3.42;;;;;;;6.48;88.29;102463.50;5051748;28;20114;-49
2021/03/21 02:57:54;;;;;;;11.50;2.92;;;;;;;6.48;88.69;102452.41;5060048;28;20049;-47
2021/03/21 03:00:26;;;;;;;11.25;2.40;;;;;;;6.48;88.34;102456.03;5071110;28;20056;-53
2021/03/21 03:02:58;;;;;;;12.65;2.70;;;;;;;6.50;87.92;102450.25;5056928;28;20056;-49
2021/03/21 03:05:28;;;;;;;12.87;2.17;;;;;;;6.50;87.86;102450.25;5070694;28;20052;-48
2021/03/21 03:08:00;;;;;;;12.00;2.17;;;;;;;6.51;87.96;102438.91;5062889;28;20698;-48
2021/03/21 03:10:32;;;;;;;10.15;1.80;;;;;;;6.52;87.21;102443.38;5050902;28;20453;-48
2021/03/21 03:13:02;;;;;;;;;;;;;;;6.47;87.01;102448.78;5058000;28;20556;-49
2021/03/21 03:15:31;;;;;;;9.02;1.67;;;;;;;6.50;87.56;102439.16;5071300;28;19966;-50
2021/03/21 03:18:09;;;;;;;10.52;1.90;;;;;;;6.56;87.17;102444.63;5064633;28;20147;-49
2021/03/21 03:20:39;;;;;;;10.10;2.20;;;;;;;6.59;87.02;102448.84;5050920;28;20128;-48
2021/03/21 03:23:16;;;;;;;11.85;2.00;;;;;;;6.61;86.84;102446.66;5055288;28;20049;-50
2021/03/21 03:25:51;;;;;;;12.13;2.00;;;;;;;6.63;86.66;102450.06;5048910;28;20052;-52
2021/03/21 03:28:24;;;;;;;14.35;2.75;;;;;;;6.65;86.52;102444.28;5065766;28;20044;-47
2021/03/21 03:30:57;;;;;;;16.80;2.47;;;;;;;6.65;86.59;102445.13;5048961;28;20414;-46
2021/03/21 03:33:25;;;;;;;15.23;2.30;;;;;;;6.66;86.36;102445.97;5055743;28;20041;-49
2021/03/21 03:35:53;;;;;;;13.60;1.92;;;;;;;6.65;86.10;102444.28;5031325;28;20111;-50
2021/03/21 03:38:21;;;;;;;8.20;1.52;;;;;;;6.68;86.11;102449.34;5050520;28;20049;-47
2021/03/21 03:40:52;;;;;;;14.25;1.90;;;;;;;6.67;85.66;102448.50;5068633;28;20451;-50
2021/03/21 03:43:30;;;;;;;8.30;1.90;;;;;;;6.66;85.51;102454.28;5065306;28;20044;-53
2021/03/21 03:46:08;;;;;;;11.65;2.00;;;;;;;6.69;85.15;102467.69;5052641;28;20068;-49
2021/03/21 03:48:43;;;;;;;13.52;1.70;;;;;;;6.68;85.35;102466.00;5055368;28;20494;-49
2021/03/21 03:51:17;;;;;;;12.07;2.47;;;;;;;6.69;84.93;102459.38;5068616;28;20641;-47
2021/03/21 03:54:07;;;;;;;11.90;2.08;;;;;;;6.70;84.58;102463.84;5065119;28;20485;-50
2021/03/21 03:56:44;;;;;;;10.32;1.65;;;;;;;6.69;84.75;102459.38;5030895;28;20099;-45
2021/03/21 03:59:25;;;;;;;13.40;1.80;;;;;;;6.69;85.04;102451.06;5051633;28;20041;-49
2021/03/21 04:02:02;;;;;;;15.27;2.33;;;;;;;6.71;84.85;102462.75;5030882;28;20054;-47
2021/03/21 04:04:39;;;;;;;15.10;1.95;;;;;;;6.71;84.82;102460.00;5061296;28;20152;-48
2021/03/21 04:07:13;;;;;;;15.55;2.30;;;;;;;6.71;85.02;102448.91;5070232;28;20045;-48
2021/03/21 04:09:49;;;;;;;10.18;2.15;;;;;;;6.72;84.80;102453.38;5065317;28;20055;-53
2021/03/21 04:12:24;;;;;;;12.70;2.20;;;;;;;6.70;84.49;102455.53;5030278;28;20453;-50
2021/03/21 04:14:57;;;;;;;15.70;2.05;;;;;;;6.70;84.67;102459.13;5053175;28;20106;-50
2021/03/21 04:17:31;;;;;;;11.60;2.03;;;;;;;6.70;84.36;102455.53;5074564;28;20048;-47
2021/03/21 04:20:05;;;;;;;14.30;1.88;;;;;;;6.70;84.39;102458.28;5068427;28;20213;-48
2021/03/21 04:22:35;;;;;;;19.52;3.17;;;;;;;6.71;84.88;102451.66;5034316;28;20092;-47
2021/03/21 04:25:09;;;;;;;14.50;2.05;;;;;;;6.72;84.95;102453.38;5058600;28;20126;-50
2021/03/21 04:27:38;;;;;;;13.63;2.25;;;;;;;6.71;84.84;102452.50;5054007;28;20072;-50
2021/03/21 04:30:16;;;;;;;18.30;2.33;;;;;;;6.70;84.40;102439.72;5057513;28;20045;-49
2021/03/21 04:32:48;;;;;;;12.07;1.90;;;;;;;6.69;84.46;102449.13;5073747;28;20052;-49
2021/03/21 04:35:23;;;;;;;15.65;2.13;;;;;;;6.66;83.91;102437.66;5068190;28;20054;-50
2021/03/21 04:37:57;;;;;;;14.18;2.03;;;;;;;6.64;84.00;102437.88;5055136;28;20547;-47
2021/03/21 04:40:24;;;;;;;16.58;2.28;;;;;;;6.62;83.40;102447.50;5058227;28;20061;-47
2021/03/21 04:42:56;;;;;;;14.88;2.53;;;;;;;6.61;83.11;102446.66;5071671;28;20048;-47
2021/03/21 04:45:27;;;;;;;15.98;2.45;;;;;;;6.62;82.90;102450.28;5068387;28;20099;-47
2021/03/21 04:48:00;;;;;;;12.13;1.80;;;;;;;6.60;82.88;102444.97;5056380;28;20077;-48
2021/03/21 04:50:31;;;;;;;15.50;1.95;;;;;;;6.59;82.15;102443.31;5058539;28;20119;-52
2021/03/21 04:53:03;;;;;;;13.63;1.77;;;;;;;6.58;82.32;102430.53;5069458;28;20079;-50
2021/03/21 04:55:33;;;;;;;13.43;2.20;;;;;;;6.59;82.22;102448.84;5067804;28;20048;-50
2021/03/21 04:58:05;;;;;;;12.73;1.95;;;;;;;6.61;82.15;102443.88;5058851;28;20110;-49
2021/03/21 05:00:38;;;;;;;13.57;2.22;;;;;;;6.63;81.77;102449.22;5058011;28;20115;-47
2021/03/21 05:03:20;;;;;;;14.65;1.77;;;;;;;6.63;82.07;102450.06;5066945;28;20052;-50
2021/03/21 05:05:56;;;;;;;14.73;2.30;;;;;;;6.62;82.00;102464.16;5068044;28;20044;-48
2021/03/21 05:08:28;;;;;;;15.18;1.92;;;;;;;6.62;82.12;102466.94;5057697;28;20049;-50
2021/03/21 05:10:58;;;;;;;17.13;2.60;;;;;;;6.61;82.11;102459.69;5057898;28;20055;-47
2021/03/21 05:13:33;;;;;;;21.48;3.28;;;;;;;6.62;82.27;102450.28;5067381;28;20052;-48
2021/03/21 05:16:04;;;;;;;19.45;2.25;;;;;;;6.61;82.20;102451.38;5067395;28;20453;-47
2021/03/21 05:18:39;;;;;;;21.38;3.13;;;;;;;6.62;82.47;102453.91;5059849;28;20056;-50
2021/03/21 05:21:15;;;;;;;17.13;2.97;;;;;;;6.62;82.51;102450.28;5057592;28;20049;-50
2021/03/21 05:23:50;;;;;;;24.63;2.88;;;;;;;6.60;82.95;102460.75;5066066;28;20140;-49
2021/03/21 05:26:22;;;;;;;17.15;2.70;;;;;;;6.59;83.12;102464.66;5063641;28;20081;-49
2021/03/21 05:29:07;;;;;;;15.75;2.50;;;;;;;6.57;82.95;102462.94;5065435;28;20041;-48
2021/03/21 05:31:34;;;;;;;15.50;2.17;;;;;;;6.55;82.85;102481.75;5066666;28;20048;-51
2021/03/21 05:34:03;;;;;;;12.88;1.80;;;;;;;6.52;82.34;102473.88;5058930;28;20132;-51
2021/03/21 05:36:47;;;;;;;11.45;1.63;;;;;;;6.50;81.39;102487.13;5056668;28;20143;-47
2021/03/21 05:39:22;;;;;;;14.85;2.17;;;;;;;6.47;80.89;102473.72;5066129;28;20350;-50
2021/03/21 05:42:33;;;;;;;11.40;1.70;;;;;;;6.48;80.17;102469.03;5065667;28;20086;-48
2021/03/21 05:45:42;;;;;;;13.02;1.98;;;;;;;6.45;79.96;102481.44;5053283;28;20114;-52
2021/03/21 05:48:29;;;;;;;10.30;1.60;;;;;;;6.44;79.17;102476.97;5058574;28;20048;-50
2021/03/21 05:51:18;;;;;;;8.60;1.58;;;;;;;6.47;78.73;102478.44;5071411;28;20053;-49
2021/03/21 05:54:21;;;;;;;12.18;1.90;;;;;;;6.51;78.59;102488.00;5059393;28;20059;-48
2021/03/21 05:57:30;;;;;;;15.35;2.42;;;;;;;6.52;78.70;102492.44;5056019;28;20103;-54
2021/03/21 06:00:18;;;;;;;13.10;2.22;;;;;;;6.55;78.56;102509.47;5060099;28;20102;-45
2021/03/21 06:03:12;;;;;;;14.23;1.95;;;;;;;6.56;78.95;102505.63;5067014;28;20045;-51
2021/03/21 06:06:24;;;;;;;12.50;2.22;;;;;;;6.55;78.92;102506.72;5053706;28;20191;-49
2021/03/21 06:09:12;;;;;;;17.10;2.17;;;;;;;6.55;78.88;102509.47;5058336;28;20136;-52
2021/03/21 06:12:04;;;;;;;19.60;2.42;;;;;;;6.56;78.47;102510.34;5071317;28;20052;-50
2021/03/21 06:14:52;;;;;;;19.80;2.78;;;;;;;6.59;78.97;102514.56;5055997;28;20044;-49
2021/03/21 06:17:50;;;;;;;17.70;3.10;;;;;;;6.60;78.86;102524.56;5053903;28;20077;-48
2021/03/21 06:20:34;;;;;;;15.10;2.35;;;;;;;6.59;78.89;102515.41;5053353;28;20040;-52
2021/03/21 06:23:37;;;;;;;18.52;2.40;;;;;;;6.61;79.34;102523.47;5066504;28;20122;-49
2021/03/21 06:26:14;;;;;;;21.50;2.80;;;;;;;6.59;79.21;102531.22;5066857;28;20521;-51
2021/03/21 06:29:02;;;;;;;19.20;2.28;;;;;;;6.58;78.50;102535.91;5065441;28;20048;-54
2021/03/21 06:32:03;;;;;;;22.25;2.72;;;;;;;6.56;79.03;102544.47;5029912;28;20136;-49
2021/03/21 06:34:37;;;;;;;19.35;2.67;;;;;;;6.53;77.98;102535.75;5053885;28;20057;-47
2021/03/21 06:37:17;;;;;;;15.48;2.40;;;;;;;6.52;77.80;102536.81;5071833;28;20098;-50
2021/03/21 06:40:02;;;;;;;16.27;2.78;;;;;;;6.49;77.61;102549.22;5064981;28;20057;-55
2021/03/21 06:43:15;;;;;;;20.00;2.67;;;;;;;6.49;77.02;102549.22;5051615;28;20044;-53
2021/03/21 06:46:02;;;;;;;20.75;2.58;;;;;;;6.48;77.13;102555.84;5037326;28;20045;-46
2021/03/21 06:48:56;;;;;;;18.50;2.83;;;;;;;6.52;76.68;102565.41;5054180;28;20406;-47
2021/03/21 06:51:40;;;;;;;19.88;2.55;;;;;;;6.52;76.79;102562.63;5053543;28;20463;-52
2021/03/21 06:54:29;;;;;;;23.45;2.97;;;;;;;6.55;76.19;102570.50;5065406;28;20498;-49
2021/03/21 06:57:57;;;;;;;17.13;2.55;;;;;;;6.52;75.65;102587.59;5056755;28;20136;-46
2021/03/21 07:01:00;;;;;;;24.52;2.88;;;;;;;6.47;75.65;102578.25;5055987;28;20056;-54
2021/03/21 07:04:21;;;;;;;20.15;2.97;;;;;;;6.45;75.05;102575.72;5055186;28;20106;-50
2021/03/21 07:07:35;;;;;;;20.60;3.08;;;;;;;6.42;73.70;102576.16;5048230;28;20525;-51
2021/03/21 07:10:49;;;;;;;15.77;2.22;;;;;;;6.41;72.52;102580.03;4974149;28;20570;-48
2021/03/21 07:13:55;;;;;;;19.23;3.08;;;;;;;6.39;72.89;102581.34;5045864;28;20505;-48
2021/03/21 07:16:48;;;;;;;22.52;3.13;;;;;;;6.40;73.09;102575.53;5048980;28;20033;-51
2021/03/21 07:19:57;;;;;;;20.95;3.28;;;;;;;6.43;73.02;102565.94;5046556;28;20056;-50
2021/03/21 07:23:17;;;;;;;20.50;3.83;;;;;;;6.42;72.89;102581.72;5048416;28;20040;-47
2021/03/21 07:25:58;;;;;;;19.70;3.30;;;;;;;6.43;73.10;102588.09;5037477;28;20041;-49
2021/03/21 07:28:59;;;;;;;21.08;3.55;;;;;;;6.46;73.01;102587.66;5052024;28;20045;-47
2021/03/21 07:31:46;;;;;;;24.42;3.65;;;;;;;6.44;72.96;102596.19;5050859;28;20508;-48
2021/03/21 07:34:43;;;;;;;22.98;3.38;;;;;;;6.43;72.13;102588.09;5046577;28;20041;-48
2021/03/21 07:37:26;;;;;;;22.73;3.65;;;;;;;6.42;71.97;102592.81;5049452;28;20057;-47
2021/03/21 07:40:06;;;;;;;22.08;3.92;;;;;;;6.46;71.85;102594.06;5050058;28;20076;-49
2021/03/21 07:43:01;;;;;;;16.63;2.58;;;;;;;6.48;71.83;102588.28;5052240;28;20360;-54
2021/03/21 07:45:53;;;;;;;18.27;3.05;;;;;;;6.51;71.44;102591.44;5050056;28;20498;-52
2021/03/21 07:48:38;;;;;;;22.92;3.58;;;;;;;6.62;71.32;102581.50;5045170;28;20049;-48
2021/03/21 07:51:17;;;;;;;19.45;2.83;;;;;;;6.74;71.50;102590.75;5053015;28;20044;-51
2021/03/21 07:53:53;;;;;;;20.55;3.35;;;;;;;6.80;70.88;102600.06;5052889;28;20137;-54
2021/03/21 07:56:28;;;;;;;21.02;3.17;;;;;;;6.79;70.18;102607.56;5057300;28;20171;-51
2021/03/21 07:58:59;;;;;;;25.75;3.70;;;;;;;6.82;70.06;102603.47;5053932;28;20041;-49
2021/03/21 08:01:26;;;;;;;22.30;3.38;;;;;;;6.89;70.25;102598.69;5057678;28;20120;-52
2021/03/21 08:03:59;;;;;;;26.23;4.15;;;;;;;6.97;70.01;102595.63;5053924;28;20045;-51
2021/03/21 08:06:34;;;;;;;22.15;3.53;;;;;;;7.07;69.97;102601.44;5056035;28;20056;-49
2021/03/21 08:09:06;;;;;;;21.48;2.72;;;;;;;7.26;69.73;102610.59;5052631;28;20115;-50
2021/03/21 08:11:38;;;;;;;24.90;3.47;;;;;;;7.35;68.71;102608.34;5051898;28;20284;-50
2021/03/21 08:14:16;;;;;;;25.17;3.33;;;;;;;7.36;68.07;102604.50;5050285;28;20418;-49
2021/03/21 08:16:46;;;;;;;14.23;2.72;;;;;;;7.32;67.93;102619.91;5054841;28;20360;-54
2021/03/21 08:19:20;;;;;;;20.85;3.47;;;;;;;7.30;68.49;102620.16;5053098;28;20568;-50
2021/03/21 08:21:48;;;;;;;17.65;2.90;;;;;;;7.26;68.65;102621.69;5054663;28;20041;-51
2021/03/21 08:24:17;;;;;;;25.80;4.22;;;;;;;7.21;69.17;102625.16;5058697;28;20073;-46
2021/03/21 08:26:46;;;;;;;26.58;3.55;;;;;;;7.16;69.85;102611.16;5057061;28;20052;-48
2021/03/21 08:29:18;;;;;;;21.13;3.95;;;;;;;7.12;69.84;102621.03;5056650;28;20057;-45
2021/03/21 08:31:46;;;;;;;;;;;;;;;6.98;69.22;102616.75;5054928;28;20132;-50
2021/03/21 08:34:39;;;;;;;22.73;3.65;;;;;;;6.95;69.83;102617.19;5055186;28;20026;-48
2021/03/21 08:37:34;;;;;;;24.95;4.20;;;;;;;6.99;70.25;102623.97;5051968;28;20122;-52
2021/03/21 08:40:17;;;;;;;18.65;3.42;;;;;;;7.00;70.04;102617.31;5054128;28;20496;-48
2021/03/21 08:42:45;;;;;;;22.30;3.45;;;;;;;7.00;70.10;102617.31;5052811;28;20395;-48
2021/03/21 08:45:30;;;;;;;31.17;4.63;;;;;;;6.92;68.51;102614.88;5052974;28;20079;-49
2021/03/21 08:48:02;;;;;;;25.15;3.88;;;;;;;6.93;68.09;102626.81;5059066;28;20143;-49
2021/03/21 08:50:38;;;;;;;22.80;3.85;;;;;;;6.94;67.14;102622.97;5053762;28;20049;-46
2021/03/21 08:53:06;;;;;;;19.92;3.20;;;;;;;7.04;66.65;102620.47;5052318;28;20057;-47
2021/03/21 08:55:35;;;;;;;17.35;3.10;;;;;;;7.12;66.52;102632.13;5051456;28;20131;-47
2021/03/21 08:58:21;;;;;;;21.13;3.60;;;;;;;7.23;65.99;102625.78;5049813;28;20432;-49
2021/03/21 09:00:48;;;;;;;25.00;4.28;;;;;;;7.28;66.27;102622.31;5051817;28;20048;-46
2021/03/21 09:03:29;;;;;;;21.20;3.50;;;;;;;7.32;66.46;102615.22;5057168;28;20397;-49
2021/03/21 09:05:59;;;;;;;25.63;3.58;;;;;;;7.33;66.49;102625.25;5053392;28;20048;-48
2021/03/21 09:08:36;;;;;;;18.23;3.60;;;;;;;7.29;65.97;102625.94;5051829;28;20091;-46
2021/03/21 09:11:05;;;;;;;23.65;3.33;;;;;;;7.30;66.57;102624.84;5051299;28;20041;-47
2021/03/21 09:13:34;;;;;;;22.95;3.40;;;;;;;7.29;66.59;102632.34;5049620;28;20494;-47
2021/03/21 09:16:04;;;;;;;21.83;4.00;;;;;;;7.28;66.45;102638.13;5052867;28;20614;-49
2021/03/21 09:18:34;;;;;;;20.40;4.00;;;;;;;7.28;66.72;102624.25;5051305;28;20454;-51
2021/03/21 09:21:24;;;;;;;24.10;4.60;;;;;;;7.29;66.50;102628.72;5055216;28;20059;-52
2021/03/21 09:24:09;;;;;;;24.60;3.72;;;;;;;7.28;66.03;102629.78;5051730;28;20103;-51
2021/03/21 09:26:43;;;;;;;29.00;4.40;;;;;;;7.33;65.95;102630.78;5055326;28;20517;-49
2021/03/21 09:29:27;;;;;;;22.08;3.03;;;;;;;7.43;65.42;102622.72;5049779;28;20660;-51
2021/03/21 09:31:57;;;;;;;20.52;3.50;;;;;;;7.53;65.80;102631.38;5053579;28;20044;-50
2021/03/21 09:34:38;;;;;;;25.25;3.45;;;;;;;7.66;65.33;102633.09;5057351;28;20148;-49
2021/03/21 09:37:10;;;;;;;26.98;4.13;;;;;;;7.70;65.60;102651.00;5047468;28;20045;-48
2021/03/21 09:39:46;;;;;;;24.98;4.38;;;;;;;7.68;64.97;102653.16;5051414;28;20048;-50
2021/03/21 09:42:14;;;;;;;21.00;3.30;;;;;;;7.66;64.76;102649.75;5054378;28;20482;-49
2021/03/21 09:44:43;;;;;;;21.77;3.97;;;;;;;7.64;64.17;102660.25;5052426;28;20052;-48
2021/03/21 09:47:22;;;;;;;23.08;3.67;;;;;;;7.67;63.86;102657.00;5052835;28;20053;-51
2021/03/21 09:49:56;;;;;;;21.30;3.08;;;;;;;7.67;63.85;102657.00;5055471;28;20178;-52
2021/03/21 09:52:33;;;;;;;22.83;3.60;;;;;;;7.64;63.40;102649.16;5052546;28;20053;-48
2021/03/21 09:55:17;;;;;;;21.67;3.72;;;;;;;7.67;63.65;102662.56;5049740;28;20081;-49
2021/03/21 09:58:06;;;;;;;24.10;4.07;;;;;;;7.63;63.47;102678.00;5050903;28;20440;-50
2021/03/21 10:00:35;;;;;;;18.27;3.42;;;;;;;7.57;63.77;102677.03;5044234;28;20535;-47
2021/03/21 10:03:04;;;;;;;21.40;4.15;;;;;;;7.57;64.06;102671.50;5048255;28;20049;-49
2021/03/21 10:05:39;;;;;;;25.30;3.53;;;;;;;7.57;64.32;102678.97;5052931;28;20101;-51
2021/03/21 10:08:14;;;;;;;19.90;3.35;;;;;;;7.64;64.47;102682.50;5047333;28;20049;-49
2021/03/21 10:10:47;;;;;;;26.45;3.70;;;;;;;7.74;64.08;102668.03;5051436;28;20072;-50
2021/03/21 10:13:28;;;;;;;21.85;3.25;;;;;;;7.82;63.63;102664.91;5052941;28;20140;-53
2021/03/21 10:16:29;;;;;;;21.20;3.13;;;;;;;7.92;63.64;102652.16;5052080;28;20041;-50
2021/03/21 10:18:58;;;;;;;18.75;3.55;;;;;;;7.97;64.09;102658.94;5031708;28;20098;-49
2021/03/21 10:21:40;;;;;;;21.98;3.53;;;;;;;8.00;63.80;102652.88;5061580;28;20052;-52
2021/03/21 10:24:31;;;;;;;23.30;3.45;;;;;;;8.05;63.27;102658.56;5047545;28;20079;-53
2021/03/21 10:27:39;;;;;;;23.40;4.15;;;;;;;8.13;63.20;102661.03;5057326;28;20539;-49
2021/03/21 10:30:31;;;;;;;24.90;4.00;;;;;;;8.14;63.19;102657.16;5046371;28;20045;-49
2021/03/21 10:33:31;;;;;;;19.53;2.90;;;;;;;8.09;62.63;102660.66;5051268;28;20045;-47
2021/03/21 10:35:59;;;;;;;19.17;3.00;;;;;;;8.06;63.32;102665.84;5051234;28;20121;-47
2021/03/21 10:38:46;;;;;;;23.08;4.05;;;;;;;8.02;63.11;102684.06;5053555;28;20037;-54
2021/03/21 10:41:52;;;;;;;22.25;4.40;;;;;;;8.01;63.33;102679.59;5049625;28;20045;-52
2021/03/21 10:44:20;;;;;;;26.20;3.55;;;;;;;8.03;64.16;102680.19;5048162;28;20079;-52
2021/03/21 10:46:53;;;;;;;23.92;4.38;;;;;;;8.07;63.86;102678.66;5044292;28;20132;-49
2021/03/21 10:49:49;;;;;;;29.38;4.72;;;;;;;8.12;62.77;102676.84;5047845;28;20055;-50
2021/03/21 10:52:25;;;;;;;20.90;3.47;;;;;;;8.14;63.21;102684.97;5045746;28;20045;-48
2021/03/21 10:55:32;;;;;;;19.30;3.40;;;;;;;8.17;62.98;102677.00;5046706;28;20470;-47
2021/03/21 10:58:31;;;;;;;25.58;3.75;;;;;;;8.19;62.66;102683.13;5042172;28;20500;-50
2021/03/21 11:01:37;;;;;;;27.02;4.40;;;;;;;8.17;63.00;102682.56;5045851;28;20525;-48
2021/03/21 11:04:20;;;;;;;29.75;3.50;;;;;;;8.19;63.49;102690.66;5047022;28;20573;-48
2021/03/21 11:06:57;;;;;;;22.17;3.53;;;;;;;8.17;63.43;102696.47;5048750;28;20059;-50
2021/03/21 11:09:26;;;;;;;25.08;3.70;;;;;;;8.17;63.65;102690.91;5054030;28;20052;-49
2021/03/21 11:11:54;;;;;;;25.17;3.92;;;;;;;8.21;64.19;102691.25;5048597;28;20116;-50
2021/03/21 11:14:31;;;;;;;22.70;3.58;;;;;;;8.19;63.83;102699.00;5052903;28;20040;-48
2021/03/21 11:17:00;;;;;;;22.92;3.35;;;;;;;8.16;64.21;102699.47;5050165;28;20047;-48
2021/03/21 11:19:46;;;;;;;21.35;3.50;;;;;;;8.14;64.33;102702.50;5047670;28;20067;-53
2021/03/21 11:22:23;;;;;;;20.27;3.42;;;;;;;8.12;64.06;102696.31;5049722;28;20103;-50
2021/03/21 11:24:50;;;;;;;22.60;3.28;;;;;;;8.12;63.74;102698.25;5055253;28;20036;-52
2021/03/21 11:27:28;;;;;;;19.52;3.60;;;;;;;8.15;63.69;102692.22;5051976;28;20040;-48
2021/03/21 11:30:09;;;;;;;21.63;3.60;;;;;;;8.15;63.42;102683.88;5051539;28;20048;-48
2021/03/21 11:32:36;;;;;;;21.05;3.47;;;;;;;8.15;63.70;102676.38;5047177;28;20083;-48
2021/03/21 11:35:06;;;;;;;22.98;4.10;;;;;;;8.14;63.34;102682.19;5056823;28;20143;-51
2021/03/21 11:37:35;;;;;;;22.95;3.33;;;;;;;8.14;63.56;102683.03;5045743;28;20083;-47
2021/03/21 11:40:06;;;;;;;17.92;3.40;;;;;;;8.15;63.26;102686.66;5055583;28;20056;-48
2021/03/21 11:42:36;;;;;;;20.00;3.42;;;;;;;8.13;63.41;102684.13;5044781;28;20048;-51
2021/03/21 11:45:24;;;;;;;18.23;3.13;;;;;;;8.12;63.48;102678.78;5069038;28;20051;-50
2021/03/21 11:47:53;;;;;;;20.92;3.38;;;;;;;8.13;64.34;102689.69;5047520;28;20044;-49
2021/03/21 11:50:24;;;;;;;19.30;3.85;;;;;;;8.16;64.49;102685.56;5056990;28;20579;-48
2021/03/21 11:52:53;;;;;;;25.83;3.75;;;;;;;8.17;64.58;102695.63;5048842;28;20079;-44
2021/03/21 11:55:24;;;;;;;19.08;3.15;;;;;;;8.15;64.67;102684.72;5054388;28;20505;-50
2021/03/21 11:58:02;;;;;;;25.00;3.50;;;;;;;8.14;64.93;102683.03;5049735;28;20107;-49
2021/03/21 12:00:31;;;;;;;20.33;3.17;;;;;;;8.11;64.55;102693.78;5052601;28;20041;-51
2021/03/21 12:03:04;;;;;;;18.67;3.47;;;;;;;8.12;64.56;102687.13;5049093;28;20041;-46
2021/03/21 12:05:34;;;;;;;21.15;3.55;;;;;;;8.14;64.93;102690.53;5056574;28;20076;-49
2021/03/21 12:08:22;;;;;;;26.63;4.03;;;;;;;8.15;64.56;102697.78;5048734;28;20169;-50
2021/03/21 12:10:51;;;;;;;20.90;3.50;;;;;;;8.12;64.97;102685.19;5052486;28;20049;-48
2021/03/21 12:13:35;;;;;;;19.17;3.92;;;;;;;8.17;64.85;102685.34;5051243;28;20500;-47
2021/03/21 12:16:07;;;;;;;27.85;3.80;;;;;;;8.17;64.91;102678.94;5051888;28;20048;-50